Home   Weather   Germany   Strausberg   Past weeks
Flag for Germany

Past Weather in Strausberg, Brandenburg, Germany — Yesterday and Last 2 Weeks

Currently: 46 °F. Clear. (Weather station: Berlin-Schoenefeld, Germany). See more current weather

Past Weather in Strausberg — Graph

°F

Strausberg Temperature Yesterday

Maximum temperature yesterday: 66 °F (at 3:20 pm)
Minimum temperature yesterday: 45 °F (at 3:20 am)
Average temperature yesterday: 53 °F

High & Low Weather Summary for the Past Weeks

 TemperatureHumidityPressure
High66 °F (Feb 24, 3:20 pm)100% (Feb 10, 6:20 am)30.77 "Hg (Feb 10, 6:20 am)
Low5 °F (Feb 15, 5:50 am)42% (Feb 21, 2:50 pm)29.74 "Hg (Feb 10, 3:20 am)
Average34 °F81%30.26 "Hg
* Reported Feb 9 11:20 pm — Feb 24 11:20 pm, Strausberg. Weather by CustomWeather, © 2021

Note: Actual official high and low records may vary slightly from our data, if they occured in-between our weather recording intervals... More about our weather records

Strausberg Weather History for the Previous 24 Hours

Scroll right to see more
 ConditionsComfort  
Time TempWeatherWind HumidityBarometerVisibility
11:20 pm
Wed, Feb 24
48 °FClear.6 mph87%30.39 "Hg10 mi
10:50 pm48 °FClear.5 mph87%30.39 "Hg10 mi
10:20 pm48 °FClear.7 mph87%30.39 "Hg10 mi
9:50 pm50 °FClear.5 mph88%30.39 "Hg10 mi
9:20 pm48 °FClear.6 mph87%30.39 "Hg10 mi
8:50 pm50 °FClear.6 mph88%30.39 "Hg10 mi
8:20 pm50 °FClear.7 mph82%30.39 "Hg10 mi
7:50 pm54 °FClear.7 mph77%30.39 "Hg10 mi
7:20 pm54 °FClear.9 mph77%30.39 "Hg10 mi
6:50 pm54 °FClear.8 mph77%30.39 "Hg10 mi
6:20 pm57 °FClear.7 mph67%30.39 "Hg10 mi
5:50 pm59 °FClear.8 mph68%30.39 "Hg10 mi
5:20 pm59 °FSunny.9 mph68%30.39 "Hg10 mi
4:50 pm63 °FSunny.7 mph59%30.42 "Hg10 mi
4:20 pm64 °FSunny.10 mph56%30.42 "Hg10 mi
3:50 pm64 °FSunny.9 mph56%30.42 "Hg10 mi
3:20 pm66 °FSunny.8 mph52%30.42 "Hg10 mi
2:50 pm64 °FSunny.8 mph56%30.42 "Hg10 mi
2:20 pm64 °FPassing clouds.7 mph56%30.42 "HgN/A
1:50 pm64 °FSunny.8 mph56%30.45 "Hg10 mi
1:20 pm64 °FPassing clouds.7 mph56%30.45 "HgN/A
12:50 pm64 °FSunny.7 mph52%30.45 "Hg10 mi
12:20 pm63 °FSunny.7 mph56%30.48 "Hg10 mi
11:50 am61 °FSunny.7 mph59%30.48 "Hg10 mi
11:20 am61 °FSunny.9 mph59%30.48 "Hg10 mi
10:50 am59 °FSunny.9 mph63%30.48 "Hg10 mi
10:20 am55 °FSunny.7 mph67%30.48 "Hg10 mi
9:50 am54 °FSunny.7 mph72%30.48 "Hg10 mi
9:20 am52 °FSunny.7 mph77%30.48 "Hg10 mi
8:50 am50 °FSunny.5 mph82%30.48 "Hg10 mi
8:20 am46 °FSunny.7 mph87%30.48 "Hg10 mi
7:50 am46 °FSunny.7 mph87%30.48 "Hg10 mi
7:20 am45 °FSunny.6 mph87%30.48 "Hg10 mi
6:50 am45 °FClear.6 mph87%30.48 "Hg10 mi
6:20 am46 °FClear.7 mph87%30.48 "Hg10 mi
5:50 am45 °FClear.6 mph87%30.48 "Hg10 mi
5:20 am45 °FClear.5 mph87%30.51 "Hg10 mi
4:50 am45 °FClear.5 mph87%30.51 "Hg10 mi
4:20 am45 °FClear.6 mph87%30.48 "Hg10 mi
3:50 am46 °FClear.6 mph87%30.48 "Hg10 mi
3:20 am45 °FClear.5 mph87%30.48 "Hg10 mi
2:50 am46 °FClear.5 mph87%30.48 "Hg10 mi
2:20 am46 °FClear.6 mph87%30.48 "Hg10 mi
1:50 am46 °FClear.8 mph87%30.48 "Hg10 mi
1:20 am48 °FClear.8 mph82%30.48 "Hg10 mi
12:50 am48 °FClear.8 mph82%30.48 "Hg10 mi
12:20 am48 °FClear.7 mph87%30.48 "Hg10 mi
Weather by CustomWeather, © 2021

See weather overview